Time,TemperatureF,DewpointF,PressureIn,WindDirection,WindDirectionDegrees,WindSpeedMPH,WindSpeedGustMPH,Humidity,HourlyPrecipIn,Conditions,Clouds,dailyrainin,SoftwareType,DateUTC
2013-05-19 00:01:00,53.8,34.6,29.94,West,278,5.4,7.6,48,0.00,,---,0.00,VWS V14.01,2013-05-19 07:01:00,
2013-05-19 00:06:00,53.8,34.6,29.94,West,272,4.9,4.9,48,0.00,,---,0.00,VWS V14.01,2013-05-19 07:06:00,
2013-05-19 00:11:00,53.8,34.6,29.94,West,272,2.7,2.7,48,0.00,,---,0.00,VWS V14.01,2013-05-19 07:11:00,
2013-05-19 00:17:00,53.8,34.6,29.91,West,261,3.6,3.6,48,0.00,,---,0.00,VWS V14.01,2013-05-19 07:17:00,
2013-05-19 00:22:00,53.8,34.6,29.91,WNW,287,4.0,4.0,48,0.00,,---,0.00,VWS V14.01,2013-05-19 07:22:00,
2013-05-19 00:27:00,53.4,35.3,29.91,WNW,295,5.4,5.4,50,0.00,,---,0.00,VWS V14.01,2013-05-19 07:27:00,
2013-05-19 00:32:00,53.2,36.6,29.94,West,265,2.7,4.0,53,0.00,,---,0.00,VWS V14.01,2013-05-19 07:32:00,
2013-05-19 00:37:00,53.2,36.6,29.94,WNW,288,3.6,4.9,53,0.04,,---,0.04,VWS V14.01,2013-05-19 07:37:00,
2013-05-19 00:42:00,52.7,38.3,29.94,West,281,6.3,6.3,58,0.04,,---,0.04,VWS V14.01,2013-05-19 07:42:00,
2013-05-19 00:47:00,52.7,39.6,29.94,WNW,296,8.1,8.1,61,0.04,,---,0.04,VWS V14.01,2013-05-19 07:47:00,
2013-05-19 00:52:00,52.7,40.5,29.94,West,279,5.8,5.8,63,0.04,,---,0.04,VWS V14.01,2013-05-19 07:52:00,
2013-05-19 00:57:00,52.5,40.7,29.94,West,274,7.6,7.6,64,0.04,,---,0.04,VWS V14.01,2013-05-19 07:57:00,
2013-05-19 01:02:00,52.7,42.1,29.94,WNW,292,4.9,4.9,67,0.04,,---,0.04,VWS V14.01,2013-05-19 08:02:00,
2013-05-19 01:07:00,52.5,42.3,29.94,West,277,5.8,5.8,68,0.04,,---,0.04,VWS V14.01,2013-05-19 08:07:00,
2013-05-19 01:12:00,52.5,42.3,29.94,West,281,6.3,6.3,68,0.04,,---,0.04,VWS V14.01,2013-05-19 08:12:00,
2013-05-19 01:17:00,52.5,42.3,29.94,West,260,5.4,5.4,68,0.04,,---,0.04,VWS V14.01,2013-05-19 08:17:00,
2013-05-19 01:22:00,52.3,42.9,29.94,West,273,6.3,6.3,70,0.04,,---,0.04,VWS V14.01,2013-05-19 08:22:00,
2013-05-19 01:27:00,52.3,43.2,29.94,WNW,290,4.0,4.5,71,0.04,,---,0.04,VWS V14.01,2013-05-19 08:27:00,
2013-05-19 01:32:00,52.3,43.2,29.94,WNW,288,4.5,4.5,71,0.04,,---,0.04,VWS V14.01,2013-05-19 08:32:00,
2013-05-19 01:37:00,52.3,43.2,29.94,West,268,3.6,4.0,71,0.00,,---,0.04,VWS V14.01,2013-05-19 08:37:00,
2013-05-19 01:42:00,52.3,43.2,29.94,West,274,0.0,5.4,71,0.00,,---,0.04,VWS V14.01,2013-05-19 08:42:00,
2013-05-19 01:47:00,52.3,43.6,29.94,WNW,292,0.0,0.0,72,0.00,,---,0.04,VWS V14.01,2013-05-19 08:47:00,
2013-05-19 01:51:00,52.3,43.6,29.94,WNW,291,2.7,3.1,72,0.00,,---,0.04,VWS V14.01,2013-05-19 08:51:00,
2013-05-19 01:57:00,52.3,43.6,29.94,WNW,290,5.4,5.4,72,0.00,,---,0.04,VWS V14.01,2013-05-19 08:57:00,
2013-05-19 02:02:00,52.3,44.0,29.94,West,275,3.1,3.1,73,0.00,,---,0.04,VWS V14.01,2013-05-19 09:02:00,
2013-05-19 02:07:00,52.3,44.0,29.94,WNW,289,3.1,3.1,73,0.00,,---,0.04,VWS V14.01,2013-05-19 09:07:00,
2013-05-19 02:12:00,52.3,44.0,29.94,WNW,288,5.8,5.8,73,0.00,,---,0.04,VWS V14.01,2013-05-19 09:12:00,
2013-05-19 02:17:00,52.3,44.0,29.94,WNW,284,4.9,4.9,73,0.00,,---,0.04,VWS V14.01,2013-05-19 09:17:00,
2013-05-19 02:22:00,52.3,44.0,29.94,WNW,284,2.7,3.1,73,0.00,,---,0.04,VWS V14.01,2013-05-19 09:22:00,
2013-05-19 02:27:00,52.3,44.0,29.94,WNW,288,4.9,4.9,73,0.00,,---,0.04,VWS V14.01,2013-05-19 09:27:00,
2013-05-19 02:32:00,52.3,44.0,29.97,West,265,3.6,3.6,73,0.00,,---,0.04,VWS V14.01,2013-05-19 09:32:00,
2013-05-19 02:37:00,52.3,44.0,29.97,WNW,293,5.4,5.8,73,0.00,,---,0.04,VWS V14.01,2013-05-19 09:37:00,
2013-05-19 02:42:00,52.2,43.8,29.97,WNW,289,5.8,5.8,73,0.00,,---,0.04,VWS V14.01,2013-05-19 09:42:00,
2013-05-19 02:47:00,52.2,43.8,29.97,WNW,301,3.6,3.6,73,0.00,,---,0.04,VWS V14.01,2013-05-19 09:47:00,
2013-05-19 02:52:00,52.2,44.1,29.97,WNW,295,3.6,3.6,74,0.00,,---,0.04,VWS V14.01,2013-05-19 09:52:00,
2013-05-19 02:57:00,52.2,44.1,29.97,WNW,289,3.6,3.6,74,0.00,,---,0.04,VWS V14.01,2013-05-19 09:57:00,
2013-05-19 03:02:00,52.2,44.1,29.97,NW,322,3.1,3.1,74,0.00,,---,0.04,VWS V14.01,2013-05-19 10:02:00,
2013-05-19 03:07:00,52.2,44.1,29.97,NNW,329,2.2,2.2,74,0.00,,---,0.04,VWS V14.01,2013-05-19 10:07:00,
2013-05-19 03:12:00,52.2,44.1,29.97,WNW,303,0.0,0.0,74,0.00,,---,0.04,VWS V14.01,2013-05-19 10:12:00,
2013-05-19 03:17:00,52.2,44.1,29.97,WNW,303,0.0,3.1,74,0.00,,---,0.04,VWS V14.01,2013-05-19 10:17:00,
2013-05-19 03:22:00,52.2,44.1,29.97,WNW,298,3.1,3.6,74,0.00,,---,0.04,VWS V14.01,2013-05-19 10:22:00,
2013-05-19 03:27:00,52.0,44.0,29.97,WNW,294,2.7,3.1,74,0.00,,---,0.04,VWS V14.01,2013-05-19 10:27:00,
2013-05-19 03:32:00,52.0,44.0,29.97,NW,305,3.1,3.1,74,0.00,,---,0.04,VWS V14.01,2013-05-19 10:32:00,
2013-05-19 03:37:00,52.0,44.0,29.97,WNW,294,2.2,3.1,74,0.00,,---,0.04,VWS V14.01,2013-05-19 10:37:00,
2013-05-19 03:42:00,52.0,44.0,29.97,West,270,0.0,3.1,74,0.00,,---,0.04,VWS V14.01,2013-05-19 10:42:00,
2013-05-19 03:47:00,52.0,44.0,29.97,West,281,4.0,4.0,74,0.00,,---,0.04,VWS V14.01,2013-05-19 10:47:00,
2013-05-19 03:52:00,52.0,44.0,29.97,WNW,301,2.7,4.5,74,0.00,,---,0.04,VWS V14.01,2013-05-19 10:52:00,
2013-05-19 03:57:00,52.0,44.0,29.97,WNW,284,0.0,0.0,74,0.00,,---,0.04,VWS V14.01,2013-05-19 10:57:00,
2013-05-19 04:02:00,52.0,44.0,29.97,WNW,291,0.0,0.0,74,0.00,,---,0.04,VWS V14.01,2013-05-19 11:02:00,
2013-05-19 04:07:00,52.0,44.0,29.97,WNW,290,2.7,2.7,74,0.00,,---,0.04,VWS V14.01,2013-05-19 11:07:00,
2013-05-19 04:12:00,52.0,44.0,29.97,WNW,282,0.0,0.0,74,0.00,,---,0.04,VWS V14.01,2013-05-19 11:12:00,
2013-05-19 04:17:00,52.0,44.0,29.97,West,277,0.0,0.0,74,0.00,,---,0.04,VWS V14.01,2013-05-19 11:17:00,
2013-05-19 04:22:00,52.0,44.0,29.97,WNW,285,2.2,4.0,74,0.00,,---,0.04,VWS V14.01,2013-05-19 11:22:00,
2013-05-19 04:27:00,52.2,44.5,29.97,WNW,286,0.0,0.0,75,0.00,,---,0.04,VWS V14.01,2013-05-19 11:27:00,
2013-05-19 04:32:00,52.0,44.3,29.97,WNW,286,0.0,0.0,75,0.00,,---,0.04,VWS V14.01,2013-05-19 11:32:00,
2013-05-19 04:37:00,52.0,44.3,29.97,WNW,291,3.1,3.1,75,0.00,,---,0.04,VWS V14.01,2013-05-19 11:37:00,
2013-05-19 04:42:00,52.0,44.3,29.97,WNW,294,3.6,3.6,75,0.00,,---,0.04,VWS V14.01,2013-05-19 11:42:00,
2013-05-19 04:47:00,52.0,44.3,29.97,NW,304,3.1,3.1,75,0.00,,---,0.04,VWS V14.01,2013-05-19 11:47:00,
2013-05-19 04:52:00,52.0,44.3,29.97,WNW,287,3.1,3.1,75,0.00,,---,0.04,VWS V14.01,2013-05-19 11:52:00,
2013-05-19 04:57:00,52.0,44.3,29.97,WNW,299,0.0,0.0,75,0.00,,---,0.04,VWS V14.01,2013-05-19 11:57:00,
2013-05-19 05:02:00,52.0,44.3,29.97,NW,320,4.0,4.0,75,0.00,,---,0.04,VWS V14.01,2013-05-19 12:02:00,
2013-05-19 05:07:00,52.0,44.3,29.97,NNW,330,2.2,2.2,75,0.00,,---,0.04,VWS V14.01,2013-05-19 12:07:00,
2013-05-19 05:12:00,52.2,44.5,29.97,NNW,348,5.4,5.4,75,0.00,,---,0.04,VWS V14.01,2013-05-19 12:12:00,
2013-05-19 05:17:00,52.2,44.5,30.00,North,0,5.4,5.4,75,0.00,,---,0.04,VWS V14.01,2013-05-19 12:17:00,
2013-05-19 05:22:00,52.0,44.3,30.00,North,357,5.4,5.4,75,0.00,,---,0.04,VWS V14.01,2013-05-19 12:22:00,
2013-05-19 05:27:00,52.0,44.3,30.00,North,353,4.0,4.0,75,0.00,,---,0.04,VWS V14.01,2013-05-19 12:27:00,
2013-05-19 05:32:00,52.0,44.3,30.00,North,1,5.4,5.4,75,0.00,,---,0.04,VWS V14.01,2013-05-19 12:32:00,
2013-05-19 05:37:00,52.0,44.3,30.00,North,10,5.4,6.3,75,0.00,,---,0.04,VWS V14.01,2013-05-19 12:37:00,
2013-05-19 05:42:00,51.8,44.1,30.00,NNE,12,4.0,4.0,75,0.00,,---,0.04,VWS V14.01,2013-05-19 12:42:00,
2013-05-19 05:47:00,51.6,44.0,30.00,NNE,26,2.7,4.0,75,0.04,,---,0.08,VWS V14.01,2013-05-19 12:47:00,
2013-05-19 05:52:00,51.6,44.0,30.00,NE,41,4.0,4.0,75,0.08,,---,0.12,VWS V14.01,2013-05-19 12:52:00,
2013-05-19 05:57:00,51.6,44.0,30.00,NNE,26,4.9,4.9,75,0.08,,---,0.12,VWS V14.01,2013-05-19 12:57:00,
2013-05-19 06:02:00,51.6,44.0,30.00,NE,42,5.8,5.8,75,0.08,,---,0.12,VWS V14.01,2013-05-19 13:02:00,
2013-05-19 06:07:00,51.4,43.8,30.00,NE,35,5.8,5.8,75,0.12,,---,0.16,VWS V14.01,2013-05-19 13:07:00,
2013-05-19 06:12:00,51.4,43.8,30.00,NE,42,5.4,5.4,75,0.12,,---,0.16,VWS V14.01,2013-05-19 13:12:00,
2013-05-19 06:17:00,51.4,43.8,30.00,NE,37,4.5,4.5,75,0.12,,---,0.16,VWS V14.01,2013-05-19 13:17:00,
2013-05-19 06:22:00,51.6,44.0,30.00,NE,35,0.0,0.0,75,0.12,,---,0.16,VWS V14.01,2013-05-19 13:22:00,
2013-05-19 06:27:00,51.6,44.0,30.00,NNE,23,4.0,4.0,75,0.12,,---,0.16,VWS V14.01,2013-05-19 13:27:00,
2013-05-19 06:32:00,51.8,44.1,30.00,NNE,24,4.0,4.0,75,0.12,,---,0.16,VWS V14.01,2013-05-19 13:32:00,
2013-05-19 06:37:00,51.8,44.1,30.00,NNE,32,2.7,2.7,75,0.12,,---,0.16,VWS V14.01,2013-05-19 13:37:00,
2013-05-19 06:42:00,52.0,44.3,30.00,NNE,30,2.7,2.7,75,0.12,,---,0.16,VWS V14.01,2013-05-19 13:42:00,
2013-05-19 06:47:00,52.0,44.3,30.00,NE,34,3.6,3.6,75,0.08,,---,0.16,VWS V14.01,2013-05-19 13:47:00,
2013-05-19 06:52:00,52.0,44.3,30.00,NE,35,4.9,4.9,75,0.08,,---,0.20,VWS V14.01,2013-05-19 13:52:00,
2013-05-19 06:57:00,52.0,44.3,30.00,NNE,15,5.8,5.8,75,0.08,,---,0.20,VWS V14.01,2013-05-19 13:57:00,
2013-05-19 07:02:00,51.8,44.1,30.00,NE,41,5.4,5.4,75,0.08,,---,0.20,VWS V14.01,2013-05-19 14:02:00,
2013-05-19 07:07:00,51.6,44.0,30.00,NE,50,3.6,3.6,75,0.04,,---,0.20,VWS V14.01,2013-05-19 14:07:00,
2013-05-19 07:12:00,51.6,44.0,30.00,NE,35,6.3,6.3,75,0.04,,---,0.20,VWS V14.01,2013-05-19 14:12:00,
2013-05-19 07:17:00,51.6,44.0,30.00,NNE,32,5.8,5.8,75,0.04,,---,0.20,VWS V14.01,2013-05-19 14:17:00,
2013-05-19 07:22:00,51.6,44.0,30.00,North,8,8.7,8.7,75,0.04,,---,0.20,VWS V14.01,2013-05-19 14:22:00,
2013-05-19 07:27:00,51.4,43.8,30.00,NNE,22,8.3,8.3,75,0.04,,---,0.20,VWS V14.01,2013-05-19 14:27:00,
2013-05-19 07:32:00,51.3,43.6,30.00,NNE,25,8.1,8.1,75,0.04,,---,0.20,VWS V14.01,2013-05-19 14:32:00,
2013-05-19 07:37:00,51.3,43.6,30.03,NE,39,4.0,5.8,75,0.04,,---,0.20,VWS V14.01,2013-05-19 14:37:00,
2013-05-19 07:42:00,51.4,43.8,30.03,NNE,30,6.3,6.3,75,0.04,,---,0.20,VWS V14.01,2013-05-19 14:42:00,
2013-05-19 07:47:00,51.6,44.0,30.03,NNE,20,6.3,6.3,75,0.04,,---,0.20,VWS V14.01,2013-05-19 14:47:00,
2013-05-19 07:52:00,51.8,44.1,30.03,NNE,26,4.0,4.0,75,0.00,,---,0.20,VWS V14.01,2013-05-19 14:52:00,
2013-05-19 07:57:00,51.8,44.1,30.03,NNE,32,5.8,5.8,75,0.00,,---,0.20,VWS V14.01,2013-05-19 14:57:00,
2013-05-19 08:02:00,52.0,44.3,30.03,NNE,21,3.1,3.1,75,0.00,,---,0.20,VWS V14.01,2013-05-19 15:02:00,
2013-05-19 08:07:00,51.8,44.1,30.03,NNE,24,5.8,5.8,75,0.00,,---,0.20,VWS V14.01,2013-05-19 15:07:00,
2013-05-19 08:12:00,51.8,44.1,30.03,NNE,33,6.3,6.3,75,0.00,,---,0.20,VWS V14.01,2013-05-19 15:12:00,
2013-05-19 08:17:00,52.2,44.5,30.03,NE,43,5.8,5.8,75,0.00,,---,0.20,VWS V14.01,2013-05-19 15:17:00,
2013-05-19 08:22:00,52.7,45.0,30.03,NE,36,3.1,4.0,75,0.00,,---,0.20,VWS V14.01,2013-05-19 15:22:00,
2013-05-19 08:27:00,52.7,45.0,30.03,NE,39,5.8,5.8,75,0.00,,---,0.20,VWS V14.01,2013-05-19 15:27:00,
2013-05-19 08:32:00,52.7,45.0,30.03,NE,44,6.3,6.3,75,0.00,,---,0.20,VWS V14.01,2013-05-19 15:32:00,
2013-05-19 08:37:00,52.7,45.0,30.03,NE,52,5.8,5.8,75,0.00,,---,0.20,VWS V14.01,2013-05-19 15:37:00,
2013-05-19 08:42:00,53.4,45.7,30.03,NE,54,4.0,4.0,75,0.00,,---,0.20,VWS V14.01,2013-05-19 15:42:00,
2013-05-19 08:47:00,53.2,45.2,30.03,NNE,33,4.9,4.9,74,0.00,,---,0.20,VWS V14.01,2013-05-19 15:47:00,
2013-05-19 08:52:00,53.1,45.0,30.03,NNE,30,3.6,5.8,74,0.00,,---,0.20,VWS V14.01,2013-05-19 15:52:00,
2013-05-19 08:57:00,53.1,45.0,30.03,NE,41,5.8,5.8,74,0.00,,---,0.20,VWS V14.01,2013-05-19 15:57:00,
2013-05-19 09:02:00,52.9,44.8,30.03,NNE,19,5.8,5.8,74,0.00,,---,0.20,VWS V14.01,2013-05-19 16:02:00,
2013-05-19 09:07:00,52.7,44.7,30.03,NNE,25,6.3,6.3,74,0.00,,---,0.20,VWS V14.01,2013-05-19 16:07:00,
2013-05-19 09:12:00,52.7,44.7,30.03,ENE,59,5.8,5.8,74,0.00,,---,0.20,VWS V14.01,2013-05-19 16:12:00,
2013-05-19 09:17:00,53.1,45.0,30.03,NNE,29,5.4,5.4,74,0.00,,---,0.20,VWS V14.01,2013-05-19 16:17:00,
2013-05-19 09:22:00,53.1,45.0,30.03,NNE,27,5.8,6.3,74,0.00,,---,0.20,VWS V14.01,2013-05-19 16:22:00,
2013-05-19 09:27:00,53.8,45.7,30.03,NE,37,7.2,7.2,74,0.00,,---,0.20,VWS V14.01,2013-05-19 16:27:00,
2013-05-19 09:32:00,54.1,46.0,30.06,NNE,32,6.3,6.3,74,0.00,,---,0.20,VWS V14.01,2013-05-19 16:32:00,
2013-05-19 09:37:00,54.7,46.9,30.06,NNE,32,6.3,6.3,75,0.00,,---,0.20,VWS V14.01,2013-05-19 16:37:00,
2013-05-19 09:42:00,55.2,47.5,30.06,NE,41,6.3,6.3,75,0.00,,---,0.20,VWS V14.01,2013-05-19 16:42:00,
2013-05-19 09:47:00,55.2,47.5,30.06,NE,34,6.3,6.3,75,0.00,,---,0.20,VWS V14.01,2013-05-19 16:47:00,
2013-05-19 09:52:00,54.3,45.9,30.06,East,85,3.6,3.6,73,0.00,,---,0.20,VWS V14.01,2013-05-19 16:52:00,
2013-05-19 09:57:00,52.0,42.1,30.06,SSE,151,7.6,7.6,69,0.00,,---,0.20,VWS V14.01,2013-05-19 16:57:00,
2013-05-19 10:02:00,51.3,32.3,30.06,ESE,111,8.1,8.1,48,0.00,,---,0.20,VWS V14.01,2013-05-19 17:02:00,
2013-05-19 10:07:00,51.4,31.9,30.06,ESE,120,0.0,6.7,47,0.00,,---,0.20,VWS V14.01,2013-05-19 17:07:00,
2013-05-19 10:12:00,52.3,31.1,30.06,ENE,69,3.1,3.1,44,0.00,,---,0.20,VWS V14.01,2013-05-19 17:12:00,
2013-05-19 10:17:00,52.2,28.6,30.06,ESE,109,4.0,4.0,40,0.00,,---,0.20,VWS V14.01,2013-05-19 17:17:00,
2013-05-19 10:22:00,52.3,28.1,30.06,ESE,117,8.7,8.7,39,0.00,,---,0.20,VWS V14.01,2013-05-19 17:22:00,
2013-05-19 10:27:00,52.5,27.7,30.06,ESE,108,4.0,4.0,38,0.00,,---,0.20,VWS V14.01,2013-05-19 17:27:00,
2013-05-19 10:32:00,52.5,27.7,30.06,ESE,108,4.9,4.9,38,0.00,,---,0.20,VWS V14.01,2013-05-19 17:32:00,
2013-05-19 10:37:00,53.4,29.1,30.06,ESE,114,6.3,6.3,39,0.00,,---,0.20,VWS V14.01,2013-05-19 17:37:00,
2013-05-19 10:42:00,52.7,27.2,30.06,East,92,6.3,6.3,37,0.00,,---,0.20,VWS V14.01,2013-05-19 17:42:00,
2013-05-19 10:47:00,53.1,28.1,30.06,ESE,105,4.0,4.0,38,0.00,,---,0.20,VWS V14.01,2013-05-19 17:47:00,
2013-05-19 10:52:00,53.1,28.1,30.06,ESE,121,5.8,5.8,38,0.00,,---,0.20,VWS V14.01,2013-05-19 17:52:00,
2013-05-19 10:57:00,54.0,28.3,30.06,ESE,110,3.1,5.8,37,0.00,,---,0.20,VWS V14.01,2013-05-19 17:57:00,
2013-05-19 11:02:00,54.7,28.3,30.06,ESE,105,8.1,8.1,36,0.00,,---,0.20,VWS V14.01,2013-05-19 18:02:00,
2013-05-19 11:07:00,54.7,28.3,30.06,ESE,105,8.1,8.1,36,0.00,,---,0.20,VWS V14.01,2013-05-19 18:07:00,
2013-05-19 11:12:00,57.6,25.6,30.06,ESE,109,0.0,0.0,29,0.00,,---,0.20,VWS V14.01,2013-05-19 18:12:00,
2013-05-19 11:17:00,56.3,25.3,30.06,ESE,108,2.7,2.7,30,0.00,,---,0.20,VWS V14.01,2013-05-19 18:17:00,
2013-05-19 11:22:00,56.3,25.3,30.06,SE,133,2.7,2.7,30,0.00,,---,0.20,VWS V14.01,2013-05-19 18:22:00,
2013-05-19 11:27:00,61.0,26.8,30.06,NNE,32,4.5,4.5,27,0.00,,---,0.20,VWS V14.01,2013-05-19 18:27:00,
2013-05-19 11:32:00,62.1,27.7,30.06,East,99,5.8,8.1,27,0.00,,---,0.20,VWS V14.01,2013-05-19 18:32:00,
2013-05-19 11:37:00,58.1,25.2,30.06,ESE,117,10.1,10.1,28,0.00,,---,0.20,VWS V14.01,2013-05-19 18:37:00,
2013-05-19 11:42:00,62.4,26.2,30.06,NE,40,3.6,3.6,25,0.00,,---,0.20,VWS V14.01,2013-05-19 18:42:00,
2013-05-19 11:47:00,64.0,23.3,30.06,ENE,64,5.4,5.4,21,0.00,,---,0.20,VWS V14.01,2013-05-19 18:47:00,
2013-05-19 11:52:00,61.7,21.4,30.06,SE,140,3.1,3.1,21,0.00,,---,0.20,VWS V14.01,2013-05-19 18:52:00,
2013-05-19 11:57:00,60.6,24.6,30.06,ESE,106,7.6,7.6,25,0.00,,---,0.20,VWS V14.01,2013-05-19 18:57:00,
2013-05-19 12:02:00,60.3,24.3,30.06,ESE,122,5.8,7.6,25,0.00,,---,0.20,VWS V14.01,2013-05-19 19:02:00,
2013-05-19 12:07:00,61.3,18.8,30.06,NE,48,6.3,6.3,19,0.00,,---,0.20,VWS V14.01,2013-05-19 19:07:00,
2013-05-19 12:12:00,64.6,15.9,30.06,NNE,33,5.4,6.3,15,0.00,,---,0.20,VWS V14.01,2013-05-19 19:12:00,
2013-05-19 12:17:00,60.3,17.9,30.06,SE,129,5.4,5.4,19,0.00,,---,0.20,VWS V14.01,2013-05-19 19:17:00,
2013-05-19 12:22:00,63.9,16.8,30.06,NNE,31,5.4,5.4,16,0.00,,---,0.20,VWS V14.01,2013-05-19 19:22:00,
2013-05-19 12:27:00,67.5,18.2,30.06,NE,42,4.0,4.0,15,0.00,,---,0.20,VWS V14.01,2013-05-19 19:27:00,
2013-05-19 12:32:00,68.4,13.8,30.06,East,86,3.6,4.0,12,0.00,,---,0.20,VWS V14.01,2013-05-19 19:32:00,
2013-05-19 12:37:00,65.7,13.5,30.06,East,100,2.2,2.2,13,0.00,,---,0.20,VWS V14.01,2013-05-19 19:37:00,
2013-05-19 12:42:00,68.7,14.1,30.06,NNE,32,2.7,2.7,12,0.00,,---,0.20,VWS V14.01,2013-05-19 19:42:00,
2013-05-19 12:47:00,70.2,15.2,30.06,NE,47,3.6,3.6,12,0.00,,---,0.20,VWS V14.01,2013-05-19 19:47:00,
2013-05-19 12:52:00,70.2,15.2,30.06,ENE,60,5.4,5.4,12,0.00,,---,0.20,VWS V14.01,2013-05-19 19:52:00,
2013-05-19 12:57:00,68.0,13.5,30.06,ESE,120,6.3,6.3,12,0.00,,---,0.20,VWS V14.01,2013-05-19 19:57:00,
2013-05-19 13:02:00,60.1,10.8,30.06,SE,124,5.4,5.8,14,0.00,,---,0.20,VWS V14.01,2013-05-19 20:02:00,
2013-05-19 13:07:00,59.2,22.4,30.06,ESE,117,4.9,4.9,24,0.00,,---,0.20,VWS V14.01,2013-05-19 20:07:00,
2013-05-19 13:12:00,59.4,22.6,30.06,ESE,119,4.9,5.4,24,0.00,,---,0.20,VWS V14.01,2013-05-19 20:12:00,
2013-05-19 13:17:00,60.8,23.8,30.06,SE,132,5.8,5.8,24,0.00,,---,0.20,VWS V14.01,2013-05-19 20:17:00,
2013-05-19 13:22:00,62.8,18.7,30.06,ENE,62,3.6,5.4,18,0.00,,---,0.20,VWS V14.01,2013-05-19 20:22:00,
2013-05-19 13:27:00,66.9,12.7,30.06,ESE,123,8.3,8.3,12,0.00,,---,0.20,VWS V14.01,2013-05-19 20:27:00,
2013-05-19 13:32:00,63.3,11.7,30.06,ESE,104,0.0,2.7,13,0.00,,---,0.20,VWS V14.01,2013-05-19 20:32:00,
2013-05-19 13:37:00,59.7,14.9,30.06,SE,145,0.0,0.0,17,0.00,,---,0.20,VWS V14.01,2013-05-19 20:37:00,
2013-05-19 13:42:00,61.5,18.9,30.06,East,94,5.8,7.6,19,0.00,,---,0.20,VWS V14.01,2013-05-19 20:42:00,
2013-05-19 13:47:00,60.8,14.4,30.06,ESE,108,5.8,5.8,16,0.00,,---,0.20,VWS V14.01,2013-05-19 20:47:00,
2013-05-19 13:52:00,59.5,20.7,30.06,East,93,11.0,11.0,22,0.00,,---,0.20,VWS V14.01,2013-05-19 20:52:00,
2013-05-19 13:57:00,58.8,22.1,30.06,East,93,8.1,8.1,24,0.00,,---,0.20,VWS V14.01,2013-05-19 20:57:00,
2013-05-19 14:02:00,64.6,12.7,30.06,NNE,27,5.4,5.4,13,0.00,,---,0.20,VWS V14.01,2013-05-19 21:02:00,
2013-05-19 14:07:00,64.6,12.7,30.06,East,96,8.1,8.1,13,0.00,,---,0.20,VWS V14.01,2013-05-19 21:07:00,
2013-05-19 14:12:00,61.3,11.8,30.06,ESE,112,3.6,5.8,14,0.00,,---,0.20,VWS V14.01,2013-05-19 21:12:00,
2013-05-19 14:17:00,65.1,13.1,30.03,NE,51,0.0,0.0,13,0.00,,---,0.20,VWS V14.01,2013-05-19 21:17:00,
2013-05-19 14:22:00,60.4,15.4,30.03,ESE,110,8.1,8.7,17,0.00,,---,0.20,VWS V14.01,2013-05-19 21:22:00,
2013-05-19 14:27:00,60.6,18.2,30.03,ESE,117,7.6,7.6,19,0.00,,---,0.20,VWS V14.01,2013-05-19 21:27:00,
2013-05-19 14:32:00,60.8,14.4,30.03,SE,141,6.3,6.3,16,0.00,,---,0.20,VWS V14.01,2013-05-19 21:32:00,
2013-05-19 14:37:00,62.2,15.5,30.03,ESE,111,6.3,6.3,16,0.00,,---,0.20,VWS V14.01,2013-05-19 21:37:00,
2013-05-19 14:42:00,63.0,11.4,30.03,East,101,5.4,5.4,13,0.00,,---,0.20,VWS V14.01,2013-05-19 21:42:00,
2013-05-19 14:47:00,61.7,12.1,30.03,SE,125,3.1,3.1,14,0.00,,---,0.20,VWS V14.01,2013-05-19 21:47:00,
2013-05-19 14:52:00,62.8,11.2,30.03,SE,135,6.3,6.3,13,0.00,,---,0.20,VWS V14.01,2013-05-19 21:52:00,
2013-05-19 14:57:00,66.2,12.1,30.03,NE,41,2.7,2.7,12,0.00,,---,0.20,VWS V14.01,2013-05-19 21:57:00,
2013-05-19 15:02:00,61.7,12.1,30.03,East,101,4.0,8.1,14,0.00,,---,0.20,VWS V14.01,2013-05-19 22:02:00,
2013-05-19 15:07:00,62.8,11.2,30.03,NNE,31,8.7,8.7,13,0.00,,---,0.20,VWS V14.01,2013-05-19 22:07:00,
2013-05-19 15:12:00,62.1,12.3,30.03,ESE,103,7.6,7.6,14,0.00,,---,0.20,VWS V14.01,2013-05-19 22:12:00,
2013-05-19 15:17:00,62.1,12.3,30.03,NE,35,0.0,0.0,14,0.00,,---,0.20,VWS V14.01,2013-05-19 22:17:00,
2013-05-19 15:22:00,63.9,12.1,30.03,ESE,107,6.3,8.3,13,0.00,,---,0.20,VWS V14.01,2013-05-19 22:22:00,
2013-05-19 15:27:00,63.5,11.8,30.03,SSE,158,7.6,7.6,13,0.00,,---,0.20,VWS V14.01,2013-05-19 22:27:00,
2013-05-19 15:32:00,64.8,12.8,30.03,NE,37,4.0,4.0,13,0.00,,---,0.20,VWS V14.01,2013-05-19 22:32:00,
2013-05-19 15:37:00,69.8,8.5,30.03,NE,48,5.8,5.8,9,0.00,,---,0.20,VWS V14.01,2013-05-19 22:37:00,
2013-05-19 15:42:00,69.8,8.5,30.03,ESE,117,3.6,6.3,9,0.00,,---,0.20,VWS V14.01,2013-05-19 22:42:00,
2013-05-19 15:47:00,62.2,7.1,30.03,SE,128,2.2,2.2,11,0.00,,---,0.20,VWS V14.01,2013-05-19 22:47:00,
2013-05-19 15:52:00,62.4,7.2,30.03,SE,128,2.2,2.2,11,0.00,,---,0.20,VWS V14.01,2013-05-19 22:52:00,
2013-05-19 15:57:00,62.2,7.1,30.03,ESE,123,8.7,8.7,11,0.00,,---,0.20,VWS V14.01,2013-05-19 22:57:00,
2013-05-19 16:02:00,62.8,7.5,30.03,East,98,8.3,8.3,11,0.00,,---,0.20,VWS V14.01,2013-05-19 23:02:00,
2013-05-19 16:07:00,66.2,8.1,30.03,NNE,30,5.8,5.8,10,0.00,,---,0.20,VWS V14.01,2013-05-19 23:07:00,
2013-05-19 16:12:00,66.9,8.6,30.03,NE,39,5.4,5.4,10,0.00,,---,0.20,VWS V14.01,2013-05-19 23:12:00,
2013-05-19 16:17:00,64.0,8.5,30.03,ENE,62,3.6,5.4,11,0.00,,---,0.20,VWS V14.01,2013-05-19 23:17:00,
2013-05-19 16:22:00,63.5,8.1,30.03,ESE,122,3.6,3.6,11,0.00,,---,0.20,VWS V14.01,2013-05-19 23:22:00,
2013-05-19 16:27:00,63.0,7.7,30.03,ESE,123,7.6,7.6,11,0.00,,---,0.20,VWS V14.01,2013-05-19 23:27:00,
2013-05-19 16:32:00,63.0,7.7,30.03,East,98,5.4,5.4,11,0.00,,---,0.20,VWS V14.01,2013-05-19 23:32:00,
2013-05-19 16:37:00,63.0,7.7,30.03,ESE,103,11.4,11.4,11,0.00,,---,0.20,VWS V14.01,2013-05-19 23:37:00,
2013-05-19 16:42:00,61.7,12.1,30.00,East,101,8.3,8.3,14,0.00,,---,0.20,VWS V14.01,2013-05-19 23:42:00,
2013-05-19 16:47:00,63.0,7.7,30.00,East,86,3.6,3.6,11,0.00,,---,0.20,VWS V14.01,2013-05-19 23:47:00,
2013-05-19 16:52:00,63.0,11.4,30.00,ESE,121,5.4,5.4,13,0.00,,---,0.20,VWS V14.01,2013-05-19 23:52:00,
2013-05-19 16:57:00,63.5,11.8,30.00,NE,43,5.4,5.4,13,0.00,,---,0.20,VWS V14.01,2013-05-19 23:57:00,
2013-05-19 17:02:00,64.4,12.5,30.00,ESE,116,3.1,3.1,13,0.00,,---,0.20,VWS V14.01,2013-05-20 00:02:00,
2013-05-19 17:07:00,62.1,12.3,30.00,East,101,10.5,10.5,14,0.00,,---,0.20,VWS V14.01,2013-05-20 00:07:00,
2013-05-19 17:12:00,60.6,11.2,30.00,ESE,106,5.8,5.8,14,0.00,,---,0.20,VWS V14.01,2013-05-20 00:12:00,
2013-05-19 17:17:00,61.5,11.9,30.00,SE,126,8.1,8.1,14,0.00,,---,0.20,VWS V14.01,2013-05-20 00:17:00,
2013-05-19 17:22:00,62.2,12.5,30.00,ESE,116,8.1,8.1,14,0.00,,---,0.20,VWS V14.01,2013-05-20 00:22:00,
2013-05-19 17:27:00,62.1,12.3,30.00,ESE,102,8.7,8.7,14,0.00,,---,0.20,VWS V14.01,2013-05-20 00:27:00,
2013-05-19 17:32:00,62.2,12.5,30.00,ESE,116,2.2,2.2,14,0.00,,---,0.20,VWS V14.01,2013-05-20 00:32:00,
2013-05-19 17:37:00,61.3,11.8,30.00,ESE,121,6.7,6.7,14,0.00,,---,0.20,VWS V14.01,2013-05-20 00:37:00,
2013-05-19 17:42:00,61.0,11.5,30.00,ESE,103,8.1,8.7,14,0.00,,---,0.20,VWS V14.01,2013-05-20 00:42:00,
2013-05-19 17:47:00,61.7,12.1,30.00,East,98,0.0,0.0,14,0.00,,---,0.20,VWS V14.01,2013-05-20 00:47:00,
2013-05-19 17:52:00,62.6,11.1,30.00,ESE,115,6.3,8.7,13,0.00,,---,0.20,VWS V14.01,2013-05-20 00:52:00,
2013-05-19 17:57:00,62.2,12.5,30.00,SSE,149,8.7,8.7,14,0.00,,---,0.20,VWS V14.01,2013-05-20 00:57:00,
2013-05-19 18:02:00,62.2,12.5,30.00,ESE,107,8.7,8.7,14,0.00,,---,0.20,VWS V14.01,2013-05-20 01:02:00,
2013-05-19 18:07:00,61.0,11.5,30.00,ESE,120,3.1,3.1,14,0.00,,---,0.20,VWS V14.01,2013-05-20 01:07:00,
2013-05-19 18:12:00,61.9,12.2,30.00,ENE,78,5.4,5.4,14,0.00,,---,0.20,VWS V14.01,2013-05-20 01:12:00,
2013-05-19 18:17:00,61.9,12.2,30.00,NE,51,2.2,7.6,14,0.00,,---,0.20,VWS V14.01,2013-05-20 01:17:00,
2013-05-19 18:22:00,61.9,12.2,30.00,ESE,112,8.1,8.1,14,0.00,,---,0.20,VWS V14.01,2013-05-20 01:22:00,
2013-05-19 18:27:00,61.9,12.2,30.00,ESE,114,7.6,7.6,14,0.00,,---,0.20,VWS V14.01,2013-05-20 01:27:00,
2013-05-19 18:32:00,61.2,11.6,30.00,East,91,5.4,5.4,14,0.00,,---,0.20,VWS V14.01,2013-05-20 01:32:00,
2013-05-19 18:37:00,61.2,11.6,30.00,East,101,7.6,7.6,14,0.00,,---,0.20,VWS V14.01,2013-05-20 01:37:00,
2013-05-19 18:42:00,61.2,11.6,30.00,East,97,7.2,8.3,14,0.00,,---,0.20,VWS V14.01,2013-05-20 01:42:00,
2013-05-19 18:47:00,60.8,11.3,30.00,ESE,115,6.3,6.3,14,0.00,,---,0.20,VWS V14.01,2013-05-20 01:47:00,
2013-05-19 18:52:00,60.4,11.0,30.00,ESE,109,8.1,8.1,14,0.00,,---,0.20,VWS V14.01,2013-05-20 01:52:00,
2013-05-19 18:57:00,60.6,11.2,30.00,ESE,104,6.3,6.3,14,0.00,,---,0.20,VWS V14.01,2013-05-20 01:57:00,
2013-05-19 19:02:00,60.8,11.3,30.00,NE,45,3.6,3.6,14,0.00,,---,0.20,VWS V14.01,2013-05-20 02:02:00,
2013-05-19 19:07:00,60.6,11.2,30.00,ESE,109,3.6,3.6,14,0.00,,---,0.20,VWS V14.01,2013-05-20 02:07:00,
2013-05-19 19:13:00,60.4,11.0,30.00,SE,124,8.3,8.3,14,0.00,,---,0.20,VWS V14.01,2013-05-20 02:13:00,
2013-05-19 19:17:00,60.4,11.0,30.00,ESE,107,5.4,5.4,14,0.00,,---,0.20,VWS V14.01,2013-05-20 02:17:00,
2013-05-19 19:23:00,60.3,10.9,30.00,ESE,110,8.3,8.3,14,0.00,,---,0.20,VWS V14.01,2013-05-20 02:23:00,
2013-05-19 19:28:00,60.1,10.8,30.00,ESE,103,4.0,4.0,14,0.00,,---,0.20,VWS V14.01,2013-05-20 02:28:00,
2013-05-19 19:33:00,59.7,10.5,30.00,ESE,111,5.4,5.8,14,0.00,,---,0.20,VWS V14.01,2013-05-20 02:33:00,
2013-05-19 19:38:00,59.4,10.2,30.00,ESE,105,4.0,4.0,14,0.00,,---,0.20,VWS V14.01,2013-05-20 02:38:00,
2013-05-19 19:43:00,58.8,9.8,30.00,ESE,107,5.4,5.4,14,0.00,,---,0.20,VWS V14.01,2013-05-20 02:43:00,
2013-05-19 19:48:00,58.5,9.5,30.00,ESE,103,4.0,4.0,14,0.00,,---,0.20,VWS V14.01,2013-05-20 02:48:00,
2013-05-19 19:53:00,58.8,9.8,30.00,ENE,65,6.3,6.3,14,0.00,,---,0.20,VWS V14.01,2013-05-20 02:53:00,
2013-05-19 19:58:00,58.6,9.6,30.00,East,95,3.6,3.6,14,0.00,,---,0.20,VWS V14.01,2013-05-20 02:58:00,
2013-05-19 20:03:00,58.6,9.6,30.00,ESE,110,6.7,6.7,14,0.00,,---,0.20,VWS V14.01,2013-05-20 03:03:00,
2013-05-19 20:08:00,58.1,9.2,30.00,ESE,109,7.2,7.2,14,0.00,,---,0.20,VWS V14.01,2013-05-20 03:08:00,
2013-05-19 20:13:00,57.2,12.8,30.00,ESE,104,7.6,7.6,17,0.00,,---,0.20,VWS V14.01,2013-05-20 03:13:00,
2013-05-19 20:18:00,57.2,12.8,30.00,East,90,5.4,5.4,17,0.00,,---,0.20,VWS V14.01,2013-05-20 03:18:00,
2013-05-19 20:23:00,57.0,9.8,30.00,ESE,112,8.3,8.3,15,0.00,,---,0.20,VWS V14.01,2013-05-20 03:23:00,
2013-05-19 20:28:00,56.3,15.8,30.00,East,100,5.8,5.8,20,0.00,,---,0.20,VWS V14.01,2013-05-20 03:28:00,
2013-05-19 20:33:00,55.0,20.8,29.97,East,100,5.8,5.8,26,0.00,,---,0.20,VWS V14.01,2013-05-20 03:33:00,
2013-05-19 20:38:00,54.5,20.3,29.97,ESE,110,5.4,5.4,26,0.00,,---,0.20,VWS V14.01,2013-05-20 03:38:00,
2013-05-19 20:43:00,53.4,23.6,29.97,ESE,105,4.9,4.9,31,0.00,,---,0.20,VWS V14.01,2013-05-20 03:43:00,
2013-05-19 20:48:00,52.7,25.8,29.97,ESE,108,4.9,4.9,35,0.00,,---,0.20,VWS V14.01,2013-05-20 03:48:00,
2013-05-19 20:53:00,52.7,25.8,29.97,ESE,108,4.0,4.5,35,0.00,,---,0.20,VWS V14.01,2013-05-20 03:53:00,
2013-05-19 20:58:00,51.1,25.7,29.97,ESE,108,3.6,3.6,37,0.00,,---,0.20,VWS V14.01,2013-05-20 03:58:00,
2013-05-19 21:01:00,51.1,25.7,29.97,ESE,121,4.0,4.9,37,0.00,,---,0.20,VWS V14.01,2013-05-20 04:01:00,
2013-05-19 21:02:00,53.1,24.7,29.97,ESE,106,5.4,5.4,33,0.00,,---,0.20,VWS V14.01,2013-05-20 04:02:00,
2013-05-19 21:07:00,53.2,22.6,29.97,ESE,113,6.7,6.7,30,0.00,,---,0.20,VWS V14.01,2013-05-20 04:07:00,
2013-05-19 21:12:00,52.2,25.4,29.97,ESE,117,4.9,4.9,35,0.00,,---,0.20,VWS V14.01,2013-05-20 04:12:00,
2013-05-19 21:17:00,51.6,25.6,29.97,ESE,117,4.9,4.9,36,0.00,,---,0.20,VWS V14.01,2013-05-20 04:17:00,
2013-05-19 21:22:00,51.8,25.0,29.97,ESE,117,3.1,3.1,35,0.00,,---,0.20,VWS V14.01,2013-05-20 04:22:00,
2013-05-19 21:27:00,52.3,24.1,29.97,ESE,115,4.0,5.8,33,0.00,,---,0.20,VWS V14.01,2013-05-20 04:27:00,
2013-05-19 21:32:00,52.3,22.6,29.97,ESE,112,4.0,4.0,31,0.00,,---,0.20,VWS V14.01,2013-05-20 04:32:00,
2013-05-19 21:37:00,50.9,24.9,29.97,SE,127,3.6,5.4,36,0.00,,---,0.20,VWS V14.01,2013-05-20 04:37:00,
2013-05-19 21:42:00,50.9,24.9,29.97,SE,143,5.4,5.4,36,0.00,,---,0.20,VWS V14.01,2013-05-20 04:42:00,
2013-05-19 21:47:00,50.0,25.4,30.00,ESE,107,4.0,4.0,38,0.00,,---,0.20,VWS V14.01,2013-05-20 04:47:00,
2013-05-19 21:52:00,50.0,24.8,30.00,ESE,107,4.0,4.0,37,0.00,,---,0.20,VWS V14.01,2013-05-20 04:52:00,
2013-05-19 21:57:00,49.1,24.6,30.00,ESE,121,0.0,0.0,38,0.00,,---,0.20,VWS V14.01,2013-05-20 04:57:00,
2013-05-19 22:02:00,48.7,25.5,30.00,SE,139,4.9,4.9,40,0.00,,---,0.20,VWS V14.01,2013-05-20 05:02:00,
2013-05-19 22:07:00,48.6,25.4,30.00,ESE,121,4.0,5.4,40,0.00,,---,0.20,VWS V14.01,2013-05-20 05:07:00,
2013-05-19 22:12:00,48.6,25.4,30.00,ESE,118,3.6,3.6,40,0.00,,---,0.20,VWS V14.01,2013-05-20 05:12:00,
2013-05-19 22:17:00,48.4,25.8,30.00,ESE,118,5.4,5.4,41,0.00,,---,0.20,VWS V14.01,2013-05-20 05:17:00,
2013-05-19 22:22:00,48.6,25.4,30.00,ESE,122,6.3,6.3,40,0.00,,---,0.20,VWS V14.01,2013-05-20 05:22:00,
2013-05-19 22:27:00,48.9,25.1,30.00,ESE,119,5.4,5.4,39,0.00,,---,0.20,VWS V14.01,2013-05-20 05:27:00,
2013-05-19 22:32:00,48.4,24.6,29.97,SE,125,5.4,5.4,39,0.00,,---,0.20,VWS V14.01,2013-05-20 05:32:00,
2013-05-19 22:37:00,48.4,24.6,29.97,ENE,65,5.8,5.8,39,0.00,,---,0.20,VWS V14.01,2013-05-20 05:37:00,
2013-05-19 22:42:00,47.7,25.1,29.97,NE,47,4.0,4.0,41,0.00,,---,0.20,VWS V14.01,2013-05-20 05:42:00,
2013-05-19 22:47:00,48.7,24.9,29.97,ESE,102,5.8,5.8,39,0.00,,---,0.20,VWS V14.01,2013-05-20 05:47:00,
2013-05-19 22:52:00,48.0,24.9,30.00,East,99,4.9,4.9,40,0.00,,---,0.20,VWS V14.01,2013-05-20 05:52:00,
2013-05-19 22:57:00,47.1,25.8,30.00,ESE,105,5.4,5.4,43,0.00,,---,0.20,VWS V14.01,2013-05-20 05:57:00,
2013-05-19 23:02:00,46.8,25.5,30.00,SSE,149,3.6,3.6,43,0.00,,---,0.20,VWS V14.01,2013-05-20 06:02:00,
2013-05-19 23:07:00,47.3,26.0,29.97,ESE,113,6.3,6.3,43,0.00,,---,0.20,VWS V14.01,2013-05-20 06:07:00,
2013-05-19 23:12:00,47.3,26.0,29.97,ESE,115,5.4,5.4,43,0.00,,---,0.20,VWS V14.01,2013-05-20 06:12:00,
2013-05-19 23:17:00,46.9,25.6,29.97,ESE,103,4.9,4.9,43,0.00,,---,0.20,VWS V14.01,2013-05-20 06:17:00,
2013-05-19 23:22:00,47.3,25.4,29.97,ESE,119,4.0,4.0,42,0.00,,---,0.20,VWS V14.01,2013-05-20 06:22:00,
2013-05-19 23:27:00,47.3,25.4,29.97,ESE,117,6.3,6.3,42,0.00,,---,0.20,VWS V14.01,2013-05-20 06:27:00,
2013-05-19 23:32:00,46.6,26.4,29.97,ESE,107,4.9,4.9,45,0.00,,---,0.20,VWS V14.01,2013-05-20 06:32:00,
2013-05-19 23:37:00,46.9,26.7,29.97,ESE,107,4.9,4.9,45,0.00,,---,0.20,VWS V14.01,2013-05-20 06:37:00,
2013-05-19 23:42:00,46.4,26.2,29.97,ESE,103,2.7,2.7,45,0.00,,---,0.20,VWS V14.01,2013-05-20 06:42:00,
2013-05-19 23:47:00,46.2,26.1,29.97,NNE,26,3.1,3.1,45,0.00,,---,0.20,VWS V14.01,2013-05-20 06:47:00,
2013-05-19 23:52:00,46.6,27.5,29.97,NNE,26,3.1,3.1,47,0.00,,---,0.20,VWS V14.01,2013-05-20 06:52:00,
2013-05-19 23:57:00,47.7,26.8,29.97,SE,128,4.0,4.0,44,0.00,,---,0.20,VWS V14.01,2013-05-20 06:57:00,